Time;durP1;ratioP1;P1;durP2;ratioP2;P2;SDS_P1;SDS_P2;PMS_P1;PMS_P2;Temp;Humidity;BMP_temperature;BMP_pressure;BME280_temperature;BME280_humidity;BME280_pressure;Samples;Min_cycle;Max_cycle;Signal;HPM_P1;HPM_P2
2022/06/09 00:00:31;;;;;;;6.17;5.50;;;;;;;;;;5111312;28;20209;-75
2022/06/09 00:03:03;;;;;;;12.47;6.13;;;;;;;14.19;100.00;65666.25;5113588;28;20192;-75
2022/06/09 00:05:31;;;;;;;7.63;5.10;;;;;;;14.19;100.00;65658.41;5093360;28;20177;-73
2022/06/09 00:08:02;;;;;;;18.80;6.07;;;;;;;14.16;100.00;65663.47;5093371;28;20190;-73
2022/06/09 00:10:41;;;;;;;14.00;6.90;;;;;;;14.16;100.00;65657.72;5093236;28;20216;-75
2022/06/09 00:13:08;;;;;;;10.40;7.47;;;;;;;;;;5093910;28;20505;-73
2022/06/09 00:15:35;;;;;;;9.43;6.87;;;;;;;14.14;100.00;65595.44;5093322;28;20190;-73
2022/06/09 00:18:01;;;;;;;11.00;5.97;;;;;;;;;;5093513;28;20194;-73
2022/06/09 00:20:28;;;;;;;9.53;6.80;;;;;;;14.01;100.00;65639.53;5097221;28;20202;-73
2022/06/09 00:22:54;;;;;;;15.30;5.87;;;;;;;;;;5117773;28;20185;-73
2022/06/09 00:25:21;;;;;;;7.43;6.10;;;;;;;13.91;100.00;65636.22;5117806;28;20181;-73
2022/06/09 00:27:48;;;;;;;6.70;5.73;;;;;;;13.91;100.00;65571.00;5117718;28;20193;-73
2022/06/09 00:30:16;;;;;;;10.00;6.50;;;;;;;;;;5115330;28;20583;-75
2022/06/09 00:32:43;;;;;;;7.03;5.27;;;;;;;;;;5116953;28;20197;-73
2022/06/09 00:35:10;;;;;;;16.73;6.97;;;;;;;13.92;100.00;65632.13;5117637;28;20242;-73
2022/06/09 00:37:36;;;;;;;12.17;5.80;;;;;;;13.85;100.00;65624.34;5117875;28;20223;-73
2022/06/09 00:40:05;;;;;;;6.23;5.50;;;;;;;13.87;100.00;65631.25;5116583;28;20541;-74
2022/06/09 00:42:33;;;;;;;10.33;5.70;;;;;;;13.82;100.00;65617.84;5083050;28;20189;-73
2022/06/09 00:45:18;;;;;;;8.37;5.17;;;;;;;;;;5117356;28;20201;-73
2022/06/09 00:47:45;;;;;;;7.57;5.13;;;;;;;13.73;100.00;65616.78;5099073;28;20280;-73
2022/06/09 00:50:17;;;;;;;7.03;5.97;;;;;;;13.75;100.00;65613.78;5115992;28;20195;-74
2022/06/09 00:52:48;;;;;;;9.43;6.37;;;;;;;13.81;100.00;65619.91;5115111;28;20197;-73
2022/06/09 00:55:17;;;;;;;12.07;5.17;;;;;;;;;;5116471;28;20192;-73
2022/06/09 00:57:48;;;;;;;7.50;5.80;;;;;;;13.82;100.00;65625.69;5117163;28;20189;-73
2022/06/09 01:00:16;;;;;;;18.43;5.93;;;;;;;;;;5115895;28;20201;-74
2022/06/09 01:02:44;;;;;;;8.50;5.47;;;;;;;13.85;100.00;65624.34;5117599;28;20184;-73
2022/06/09 01:05:15;;;;;;;5.63;4.90;;;;;;;13.83;100.00;65622.13;5115963;28;20239;-73
2022/06/09 01:07:43;;;;;;;7.60;4.90;;;;;;;;;;5117595;28;20171;-73
2022/06/09 01:10:10;;;;;;;5.20;4.70;;;;;;;;;;5115798;28;20239;-74
2022/06/09 01:12:38;;;;;;;9.10;5.47;;;;;;;;;;5117104;28;20193;-73
2022/06/09 01:15:06;;;;;;;10.10;4.57;;;;;;;;;;5116815;28;20181;-73
2022/06/09 01:17:42;;;;;;;11.10;4.87;;;;;;;13.80;100.00;65616.19;5117111;28;20208;-73
2022/06/09 01:20:08;;;;;;;8.57;4.97;;;;;;;;;;5116128;28;20181;-74
2022/06/09 01:22:57;;;;;;;4.90;4.70;;;;;;;13.87;100.00;65633.84;5115980;28;20197;-73
2022/06/09 01:25:35;;;;;;;13.67;5.30;;;;;;;13.86;100.00;65625.47;5117108;28;20194;-74
2022/06/09 01:28:20;;;;;;;7.70;4.30;;;;;;;13.88;100.00;65632.91;5115904;28;20615;-74
2022/06/09 01:30:55;;;;;;;4.63;3.70;;;;;;;;;;5095484;28;20201;-73
2022/06/09 01:33:34;;;;;;;5.43;5.07;;;;;;;;;;5105476;28;20193;-73
2022/06/09 01:36:23;;;;;;;8.33;4.47;;;;;;;13.94;100.00;65634.38;5116181;28;20181;-74
2022/06/09 01:38:51;;;;;;;5.83;4.63;;;;;;;;;;5115659;28;20558;-73
2022/06/09 01:41:20;;;;;;;4.57;4.20;;;;;;;13.94;100.00;65642.19;5116364;28;20760;-73
2022/06/09 01:43:47;;;;;;;5.30;4.27;;;;;;;;;;5115624;28;20197;-72
2022/06/09 01:46:34;;;;;;;9.83;4.30;;;;;;;;;;5115096;28;20193;-73
2022/06/09 01:49:10;;;;;;;5.63;4.70;;;;;;;13.80;100.00;65618.81;5114909;28;20264;-73
2022/06/09 01:51:40;;;;;;;8.50;3.80;;;;;;;13.87;100.00;65631.81;5116314;28;20297;-73
2022/06/09 01:54:15;;;;;;;5.77;4.40;;;;;;;13.76;100.00;65612.28;5116754;28;20181;-72
2022/06/09 01:56:57;;;;;;;9.60;5.07;;;;;;;;;;5115246;28;20654;-73
2022/06/09 01:59:28;;;;;;;4.60;3.73;;;;;;;;;;5116036;28;20204;-72
2022/06/09 02:02:00;;;;;;;5.70;3.77;;;;;;;13.74;100.00;65612.13;5116235;28;20581;-73
2022/06/09 02:04:32;;;;;;;4.60;4.40;;;;;;;;;;5115494;28;20201;-74
2022/06/09 02:07:02;;;;;;;5.93;4.17;;;;;;;13.63;100.00;65605.09;5095428;28;20178;-72
2022/06/09 02:09:30;;;;;;;14.07;4.50;;;;;;;;;;5105325;28;20211;-72
2022/06/09 02:12:22;;;;;;;7.20;3.80;;;;;;;13.69;100.00;65604.50;5115685;28;20197;-72
2022/06/09 02:14:52;;;;;;;9.40;3.93;;;;;;;13.62;100.00;65604.56;5116268;28;20177;-72
2022/06/09 02:17:19;;;;;;;4.50;3.70;;;;;;;;;;5116194;28;20177;-72
2022/06/09 02:19:49;;;;;;;6.87;3.60;;;;;;;13.70;100.00;65613.44;5115612;28;20184;-72
2022/06/09 02:22:16;;;;;;;7.30;3.90;;;;;;;13.59;100.00;65596.00;5113578;28;20725;-72
2022/06/09 02:24:42;;;;;;;4.70;3.77;;;;;;;13.59;100.00;65595.47;5115450;28;20216;-72
2022/06/09 02:27:10;;;;;;;4.33;3.27;;;;;;;13.56;100.00;65589.50;5115444;28;20196;-72
2022/06/09 02:29:37;;;;;;;11.73;4.07;;;;;;;13.61;100.00;65602.91;5114378;28;20193;-73
2022/06/09 02:32:04;;;;;;;8.53;3.63;;;;;;;13.69;100.00;65606.56;5115292;28;20266;-72
2022/06/09 02:34:31;;;;;;;4.93;3.80;;;;;;;13.59;100.00;65592.84;5113682;28;20549;-72
2022/06/09 02:36:57;;;;;;;3.97;3.43;;;;;;;13.54;100.00;65587.28;5115306;28;20185;-72
2022/06/09 02:39:24;;;;;;;4.03;3.53;;;;;;;;;;5115226;28;20196;-71
2022/06/09 02:41:50;;;;;;;8.93;4.53;;;;;;;13.50;100.00;65586.00;5115175;28;20201;-71
2022/06/09 02:44:17;;;;;;;8.23;4.17;;;;;;;13.45;100.00;65578.41;5114271;28;20246;-73
2022/06/09 02:46:43;;;;;;;4.80;3.90;;;;;;;13.42;100.00;65582.88;5095615;28;20197;-71
2022/06/09 02:49:10;;;;;;;7.87;4.33;;;;;;;;;;5115020;28;20181;-72
2022/06/09 02:51:40;;;;;;;5.57;3.90;;;;;;;;;;5114912;28;20266;-73
2022/06/09 02:54:10;;;;;;;4.50;3.73;;;;;;;13.36;100.00;65576.22;5114977;28;20189;-72
2022/06/09 02:56:38;;;;;;;3.97;3.73;;;;;;;13.37;100.00;65571.56;5113893;28;20180;-73
2022/06/09 02:59:05;;;;;;;8.23;3.93;;;;;;;;;;5113039;28;20200;-72
2022/06/09 03:01:31;;;;;;;8.27;4.00;;;;;;;13.47;100.00;65583.22;5113665;28;20209;-72
2022/06/09 03:03:58;;;;;;;8.83;3.67;;;;;;;13.38;100.00;65572.69;5115296;28;20212;-72
2022/06/09 03:06:25;;;;;;;5.40;4.63;;;;;;;13.38;100.00;65578.44;5114959;28;20177;-72
2022/06/09 03:08:52;;;;;;;4.43;4.20;;;;;;;13.33;100.00;65567.13;5113003;28;20193;-72
2022/06/09 03:11:18;;;;;;;8.17;4.97;;;;;;;;;;5097061;28;20691;-72
2022/06/09 03:13:45;;;;;;;7.03;4.67;;;;;;;;;;5114504;28;20196;-72
2022/06/09 03:16:13;;;;;;;17.30;4.47;;;;;;;;;;5114447;28;20181;-72
2022/06/09 03:18:40;;;;;;;5.17;4.60;;;;;;;;;;5112740;28;20208;-72
2022/06/09 03:21:06;;;;;;;10.40;4.43;;;;;;;;;;5114383;28;20566;-72
2022/06/09 03:23:33;;;;;;;7.47;4.47;;;;;;;;;;5112470;28;20251;-72
2022/06/09 03:25:59;;;;;;;7.17;5.27;;;;;;;;;;5114601;28;20188;-72
2022/06/09 03:28:26;;;;;;;13.83;5.37;;;;;;;;;;5113003;28;20559;-72
2022/06/09 03:30:52;;;;;;;11.90;5.40;;;;;;;13.17;100.00;65547.28;5114163;28;20209;-72
2022/06/09 03:33:19;;;;;;;4.73;4.43;;;;;;;13.19;100.00;65565.69;5114088;28;20234;-72
2022/06/09 03:35:45;;;;;;;5.77;5.20;;;;;;;;;;5114939;28;20604;-72
2022/06/09 03:38:12;;;;;;;6.70;5.20;;;;;;;13.16;100.00;65546.72;5113997;28;20185;-72
2022/06/09 03:40:38;;;;;;;8.57;5.50;;;;;;;;;;5112412;28;20623;-72
2022/06/09 03:43:06;;;;;;;10.33;5.80;;;;;;;;;;5114649;28;20227;-72
2022/06/09 03:45:34;;;;;;;12.50;6.47;;;;;;;13.07;100.00;65538.75;5114103;28;20671;-72
2022/06/09 03:48:01;;;;;;;14.63;6.37;;;;;;;13.06;100.00;65538.22;5113136;28;20529;-74
2022/06/09 03:50:30;;;;;;;13.03;7.97;;;;;;;13.10;100.00;65542.66;5113632;28;20286;-72
2022/06/09 03:52:57;;;;;;;8.43;7.60;;;;;;;13.10;100.00;65540.06;5111969;28;20555;-72
2022/06/09 03:55:24;;;;;;;9.27;6.23;;;;;;;13.13;100.00;65551.19;5114281;28;20165;-72
2022/06/09 03:57:51;;;;;;;10.33;8.40;;;;;;;;;;5112869;28;20229;-72
2022/06/09 04:00:27;;;;;;;12.97;8.03;;;;;;;13.19;100.00;65557.88;5114297;28;20211;-73
2022/06/09 04:02:54;;;;;;;11.37;6.93;;;;;;;;;;5114110;28;20214;-72
2022/06/09 04:05:22;;;;;;;19.70;7.43;;;;;;;13.15;100.00;65547.66;5112804;28;20250;-72
2022/06/09 04:07:48;;;;;;;13.73;7.07;;;;;;;;;;5112986;28;20651;-73
2022/06/09 04:10:19;;;;;;;11.03;7.03;;;;;;;13.25;100.00;65558.25;5113635;28;20201;-72
2022/06/09 04:12:46;;;;;;;10.67;7.87;;;;;;;13.19;100.00;65549.50;5112872;28;20177;-73
2022/06/09 04:15:12;;;;;;;17.33;8.87;;;;;;;;;;5113699;28;20177;-72
2022/06/09 04:17:39;;;;;;;14.43;8.17;;;;;;;13.13;100.00;65551.19;5112848;28;20193;-72
2022/06/09 04:20:06;;;;;;;14.60;8.90;;;;;;;;;;5114157;28;20173;-72
2022/06/09 04:22:33;;;;;;;10.90;9.63;;;;;;;13.06;100.00;65537.66;5113923;28;20203;-72
2022/06/09 04:25:00;;;;;;;10.37;9.27;;;;;;;13.09;100.00;65538.41;5111480;28;20258;-72
2022/06/09 04:27:26;;;;;;;13.17;8.27;;;;;;;13.09;100.00;65546.22;5113541;28;20218;-73
2022/06/09 04:29:53;;;;;;;26.00;10.57;;;;;;;13.11;100.00;65543.22;5110691;28;20604;-73
2022/06/09 04:32:19;;;;;;;17.57;10.30;;;;;;;;;;5112173;28;20274;-72
2022/06/09 04:34:45;;;;;;;25.67;12.80;;;;;;;;;;5113457;28;20196;-72
2022/06/09 04:37:12;;;;;;;18.70;11.63;;;;;;;;;;5113478;28;20235;-72
2022/06/09 04:39:38;;;;;;;20.50;10.93;;;;;;;;;;5108846;28;20199;-72
2022/06/09 04:42:05;;;;;;;34.03;14.77;;;;;;;13.10;100.00;65550.47;5113186;28;20683;-72
2022/06/09 04:44:31;;;;;;;23.40;12.77;;;;;;;;;;5113377;28;20205;-72
2022/06/09 04:46:57;;;;;;;23.30;11.87;;;;;;;;;;5113607;28;20193;-72
2022/06/09 04:49:24;;;;;;;20.07;11.13;;;;;;;13.20;100.00;65553.78;5113321;28;20197;-72
2022/06/09 04:51:50;;;;;;;21.80;12.00;;;;;;;;;;5094187;28;20224;-72
2022/06/09 04:54:17;;;;;;;21.80;13.70;;;;;;;13.13;100.00;65543.38;5113278;28;20181;-72
2022/06/09 04:56:44;;;;;;;26.03;13.77;;;;;;;;;;5113724;28;20181;-72
2022/06/09 04:59:10;;;;;;;35.13;14.57;;;;;;;13.18;100.00;65548.38;5112665;28;20655;-72
2022/06/09 05:01:38;;;;;;;41.83;16.00;;;;;;;13.20;100.00;65561.06;5112587;28;20209;-72
2022/06/09 05:04:04;;;;;;;35.43;16.30;;;;;;;;;;5110603;28;20186;-72
2022/06/09 05:06:31;;;;;;;34.13;14.47;;;;;;;13.23;100.00;65561.22;5115442;28;20254;-72
2022/06/09 05:08:57;;;;;;;21.03;14.60;;;;;;;13.25;100.00;65563.44;5116927;28;20196;-72
2022/06/09 05:11:25;;;;;;;24.20;15.60;;;;;;;13.22;100.00;65552.84;5116931;28;20262;-72
2022/06/09 05:13:52;;;;;;;32.13;16.73;;;;;;;13.33;100.00;65565.06;5115049;28;20663;-72
2022/06/09 05:16:18;;;;;;;31.40;15.63;;;;;;;;;;5115776;28;20189;-72
2022/06/09 05:18:45;;;;;;;33.13;15.27;;;;;;;13.34;100.00;65565.63;5117420;28;20215;-72
2022/06/09 05:21:11;;;;;;;26.97;15.20;;;;;;;;;;5116687;28;20201;-72
2022/06/09 05:23:38;;;;;;;29.70;15.40;;;;;;;13.34;100.00;65565.63;5096075;28;20662;-72
2022/06/09 05:26:06;;;;;;;24.67;14.50;;;;;;;;;;5116912;28;20193;-72
2022/06/09 05:28:33;;;;;;;32.97;14.93;;;;;;;13.42;100.00;65585.50;5117153;28;20598;-72
2022/06/09 05:31:00;;;;;;;25.43;15.27;;;;;;;13.41;100.00;65516.59;5116492;28;20618;-72
2022/06/09 05:33:28;;;;;;;41.53;16.43;;;;;;;13.42;100.00;65574.50;5115376;28;20203;-72
2022/06/09 05:35:56;;;;;;;36.33;16.30;;;;;;;13.43;100.00;65575.63;5116403;28;20178;-71
2022/06/09 05:46:43;;;;;;;27.20;17.30;;;;;;;;;;5115487;28;20199;-72
2022/06/09 05:49:14;;;;;;;27.43;16.27;;;;;;;;;;5114706;28;20196;-71
2022/06/09 05:51:40;;;;;;;31.40;17.10;;;;;;;13.56;100.00;65589.50;5115843;28;20702;-72
2022/06/09 05:54:07;;;;;;;31.37;16.80;;;;;;;13.56;100.00;65592.66;5115404;28;20212;-71
2022/06/09 05:56:34;;;;;;;31.97;16.47;;;;;;;13.59;100.00;65593.41;5115132;28;20519;-72
2022/06/09 05:59:00;;;;;;;30.63;17.47;;;;;;;;;;5116545;28;20204;-71
2022/06/09 06:01:27;;;;;;;26.27;17.60;;;;;;;;;;5113120;28;20573;-71
2022/06/09 06:03:54;;;;;;;32.30;16.97;;;;;;;;;;5113683;28;20201;-71
2022/06/09 06:06:35;;;;;;;38.10;16.83;;;;;;;13.64;100.00;65612.00;5096272;28;20211;-72
2022/06/09 06:09:15;;;;;;;29.20;17.40;;;;;;;13.62;100.00;65596.19;5100697;28;20190;-72
2022/06/09 06:11:43;;;;;;;49.57;20.03;;;;;;;13.62;100.00;65598.78;5107641;28;20743;-71
2022/06/09 06:14:11;;;;;;;35.03;17.60;;;;;;;13.60;100.00;65594.50;5112613;28;20193;-71
2022/06/09 06:16:38;;;;;;;36.33;17.97;;;;;;;;;;5112934;28;20236;-71
2022/06/09 06:19:06;;;;;;;34.87;17.00;;;;;;;13.58;100.00;65599.56;5113530;28;20199;-72
2022/06/09 06:21:34;;;;;;;28.83;17.67;;;;;;;13.73;100.00;65616.25;5114178;28;20265;-71
2022/06/09 06:24:00;;;;;;;25.80;17.73;;;;;;;;;;5114789;28;20673;-72
2022/06/09 06:26:27;;;;;;;48.03;18.33;;;;;;;;;;5114818;28;20201;-71
2022/06/09 06:28:53;;;;;;;28.67;17.93;;;;;;;13.76;100.00;65614.91;5112685;28;20198;-72
2022/06/09 06:31:20;;;;;;;34.83;18.27;;;;;;;13.76;100.00;65619.56;5115444;28;20258;-71
2022/06/09 06:33:46;;;;;;;52.87;16.47;;;;;;;;;;5113213;28;20192;-71
2022/06/09 06:36:13;;;;;;;29.93;17.70;;;;;;;;;;5105324;28;20189;-72
2022/06/09 06:38:40;;;;;;;34.03;17.80;;;;;;;13.94;100.00;65631.19;5107834;28;20197;-72
2022/06/09 06:41:07;;;;;;;35.57;16.80;;;;;;;;;;5113522;28;20217;-73
2022/06/09 06:43:41;;;;;;;26.23;16.07;;;;;;;13.99;100.00;65644.56;5108751;28;20188;-72
2022/06/09 06:46:09;;;;;;;21.10;16.33;;;;;;;13.95;100.00;65642.75;5114408;28;20197;-72
2022/06/09 06:48:36;;;;;;;22.07;15.00;;;;;;;;;;5113770;28;20193;-72
2022/06/09 06:51:03;;;;;;;19.83;15.73;;;;;;;13.80;100.00;65615.63;5113796;28;20714;-72
2022/06/09 06:53:29;;;;;;;21.30;17.47;;;;;;;;;;5114305;28;20189;-73
2022/06/09 06:55:56;;;;;;;25.30;18.57;;;;;;;;;;5114486;28;20535;-72
2022/06/09 06:58:22;;;;;;;32.03;17.23;;;;;;;;;;5114784;28;20185;-71
2022/06/09 07:00:49;;;;;;;29.67;16.57;;;;;;;;;;5114948;28;20205;-72
2022/06/09 07:03:16;;;;;;;24.00;15.63;;;;;;;13.72;100.00;65609.91;5114996;28;20185;-72
2022/06/09 07:05:58;;;;;;;35.97;16.87;;;;;;;13.70;100.00;65548.22;5114900;28;20193;-72
2022/06/09 07:08:24;;;;;;;23.23;16.90;;;;;;;;;;5114667;28;20185;-71
2022/06/09 07:10:52;;;;;;;23.87;16.87;;;;;;;13.72;100.00;65607.31;5114528;28;20213;-72
2022/06/09 07:13:19;;;;;;;23.87;16.60;;;;;;;13.75;100.00;65613.25;5114497;28;20193;-71
2022/06/09 07:15:46;;;;;;;34.00;16.73;;;;;;;;;;5114727;28;20188;-71
2022/06/09 07:18:12;;;;;;;29.10;17.77;;;;;;;13.77;100.00;65612.84;5114447;28;20186;-71
2022/06/09 07:20:40;;;;;;;31.07;19.00;;;;;;;13.80;100.00;65618.81;5114857;28;20227;-71
2022/06/09 07:23:07;;;;;;;40.43;19.47;;;;;;;13.94;100.00;65639.03;5114305;28;20193;-71
2022/06/09 07:25:35;;;;;;;35.53;18.60;;;;;;;;;;5114244;28;20236;-71
2022/06/09 07:28:01;;;;;;;26.33;19.70;;;;;;;14.10;100.00;65656.81;5113768;28;20196;-71
2022/06/09 07:30:28;;;;;;;20.97;16.13;;;;;;;14.04;100.00;65645.47;5114486;28;20209;-71
2022/06/09 07:32:55;;;;;;;29.70;17.77;;;;;;;;;;5114121;28;20185;-71
2022/06/09 07:35:25;;;;;;;32.37;16.13;;;;;;;14.11;100.00;65649.53;5114165;28;20181;-71
2022/06/09 07:37:51;;;;;;;18.77;15.67;;;;;;;;;;5114624;28;20200;-71
2022/06/09 07:40:18;;;;;;;37.50;16.43;;;;;;;;;;5114024;28;20201;-72
2022/06/09 07:42:44;;;;;;;21.80;13.87;;;;;;;;;;5114589;28;20238;-71
2022/06/09 07:45:12;;;;;;;18.93;15.20;;;;;;;14.06;100.00;65657.56;5114206;28;20205;-71
2022/06/09 07:47:39;;;;;;;25.50;14.57;;;;;;;;;;5114413;28;20204;-71
2022/06/09 07:50:08;;;;;;;22.33;13.97;;;;;;;14.18;100.00;65657.31;5113873;28;20193;-71
2022/06/09 07:52:41;;;;;;;25.60;14.47;;;;;;;;;;5113868;28;20188;-71
2022/06/09 07:55:08;;;;;;;24.73;15.33;;;;;;;;;;5113883;28;20173;-71
2022/06/09 07:57:34;;;;;;;28.90;15.67;;;;;;;14.27;100.00;65669.94;5113838;28;20192;-71
2022/06/09 08:00:04;;;;;;;24.87;16.03;;;;;;;14.37;100.00;65681.06;5113710;28;20185;-72
2022/06/09 08:02:37;;;;;;;28.27;16.80;;;;;;;14.38;100.00;65622.09;5113735;28;20173;-71
2022/06/09 08:05:05;;;;;;;28.50;16.53;;;;;;;;;;5114207;28;20180;-72
2022/06/09 08:07:31;;;;;;;20.63;15.87;;;;;;;14.61;100.00;65707.22;5113663;28;20194;-71
2022/06/09 08:09:57;;;;;;;23.53;16.50;;;;;;;14.72;100.00;65716.84;5095333;28;20195;-72
2022/06/09 08:12:24;;;;;;;21.13;15.17;;;;;;;14.80;100.00;65725.19;5114197;28;20182;-71
2022/06/09 08:14:50;;;;;;;23.43;13.90;;;;;;;;;;5114137;28;20181;-71
2022/06/09 08:17:17;;;;;;;17.90;13.40;;;;;;;14.93;100.00;65741.69;5113884;28;20192;-71
2022/06/09 08:19:45;;;;;;;15.70;14.20;;;;;;;;;;5113580;28;20180;-71
2022/06/09 08:22:12;;;;;;;18.30;12.93;;;;;;;14.98;100.00;65744.63;5113543;28;20201;-71
2022/06/09 08:24:38;;;;;;;20.63;15.13;;;;;;;15.02;100.00;65749.66;5113513;28;20181;-71
2022/06/09 08:27:05;;;;;;;21.13;13.07;;;;;;;15.07;100.00;65754.66;5113436;28;20754;-71
2022/06/09 08:29:32;;;;;;;15.00;12.07;;;;;;;15.05;100.00;65768.09;5114137;28;20189;-71
2022/06/09 08:31:59;;;;;;;14.70;12.37;;;;;;;15.12;100.00;65760.22;5113803;28;20615;-71
2022/06/09 08:34:26;;;;;;;22.07;11.83;;;;;;;15.02;100.00;65756.94;5113433;28;20189;-71
2022/06/09 08:36:52;;;;;;;14.07;12.47;;;;;;;;;;5113801;28;20158;-71
2022/06/09 08:39:19;;;;;;;19.70;13.03;;;;;;;;;;5113556;28;20186;-71
2022/06/09 08:41:58;;;;;;;16.07;13.33;;;;;;;15.13;100.00;65769.72;5117495;28;20205;-71
2022/06/09 08:44:43;;;;;;;12.70;11.70;;;;;;;;;;5117663;28;20166;-71
2022/06/09 08:47:22;;;;;;;20.00;12.80;;;;;;;15.33;100.00;65785.66;5117341;28;20242;-71
2022/06/09 08:50:21;;;;;;;20.33;13.40;;;;;;;15.32;100.00;65785.09;5117446;28;20166;-71
2022/06/09 08:53:00;;;;;;;14.30;12.17;;;;;;;15.36;100.00;65786.38;5062003;28;20578;-72
2022/06/09 08:55:36;;;;;;;21.43;12.43;;;;;;;;;;5117523;28;20192;-71
2022/06/09 08:58:25;;;;;;;14.97;12.50;;;;;;;;;;5117492;28;20222;-71
2022/06/09 09:01:00;;;;;;;14.80;13.10;;;;;;;15.67;100.00;65823.50;5103979;28;20209;-72
2022/06/09 09:03:32;;;;;;;13.47;12.20;;;;;;;15.80;100.00;65836.88;5117656;28;20173;-71
2022/06/09 09:06:09;;;;;;;20.07;11.77;;;;;;;15.95;100.00;65850.97;5117606;28;20188;-71
2022/06/09 09:08:37;;;;;;;15.13;10.27;;;;;;;16.07;100.00;65806.16;5117244;28;20208;-71
2022/06/09 09:11:28;;;;;;;12.20;11.10;;;;;;;16.15;100.00;65873.25;5117192;28;20679;-71
2022/06/09 09:14:03;;;;;;;15.63;12.80;;;;;;;16.26;100.00;65887.53;5116951;28;20189;-71
2022/06/09 09:16:35;;;;;;;15.60;12.77;;;;;;;16.08;100.00;65865.44;5117234;28;20639;-71
2022/06/09 09:19:03;;;;;;;11.50;10.50;;;;;;;;;;5116888;28;20201;-72
2022/06/09 09:21:59;;;;;;;14.03;10.90;;;;;;;16.39;100.00;65898.84;5117021;28;20250;-71
2022/06/09 09:24:38;;;;;;;10.50;9.57;;;;;;;16.46;100.00;65917.13;5117328;28;20623;-71
2022/06/09 09:27:18;;;;;;;14.37;11.03;;;;;;;16.50;100.00;65911.09;5117214;28;20635;-71
2022/06/09 09:29:53;;;;;;;11.80;10.93;;;;;;;16.54;100.00;65857.34;5117170;28;20522;-71
2022/06/09 09:32:28;;;;;;;12.07;11.00;;;;;;;16.49;100.00;65918.41;5116935;28;20242;-71
2022/06/09 09:34:55;;;;;;;10.83;10.10;;;;;;;;;;5117327;28;20519;-71
2022/06/09 09:37:26;;;;;;;11.90;10.93;;;;;;;16.74;100.00;65856.59;5116531;28;20184;-71
2022/06/09 09:40:06;;;;;;;13.00;11.47;;;;;;;16.93;100.00;65957.91;5116373;28;20238;-71
2022/06/09 09:42:34;;;;;;;14.53;13.30;;;;;;;;;;5116660;28;20165;-71
2022/06/09 09:45:09;;;;;;;24.00;14.77;;;;;;;17.08;100.00;65916.41;5116304;28;20181;-71
2022/06/09 09:47:46;;;;;;;13.97;12.57;;;;;;;;;;5116476;28;20253;-71
2022/06/09 09:50:30;;;;;;;12.27;11.23;;;;;;;16.82;100.00;65888.00;5116202;28;20181;-71
2022/06/09 09:53:01;;;;;;;17.03;12.33;;;;;;;16.71;100.00;65933.97;5115701;28;20185;-71
2022/06/09 09:55:29;;;;;;;17.57;13.43;;;;;;;16.68;100.00;65939.03;5116354;28;20181;-71
2022/06/09 09:58:15;;;;;;;16.37;14.80;;;;;;;16.65;100.00;65930.44;5116388;28;20181;-71
2022/06/09 10:00:41;;;;;;;17.40;15.37;;;;;;;;;;5115958;28;20291;-71
2022/06/09 10:09:11;;;;;;;21.37;16.23;;;;;;;16.10;100.00;65870.28;5116143;28;20162;-71
2022/06/09 10:11:55;;;;;;;16.40;14.90;;;;;;;;;;5116341;28;20208;-71
2022/06/09 10:14:21;;;;;;;17.37;15.00;;;;;;;16.13;100.00;65878.31;5116052;28;20631;-71
2022/06/09 10:17:08;;;;;;;16.17;14.03;;;;;;;;;;5115907;28;20248;-71
2022/06/09 10:20:03;;;;;;;23.57;14.23;;;;;;;16.10;100.00;65867.66;5115951;28;20173;-71
2022/06/09 10:22:32;;;;;;;14.67;13.37;;;;;;;;;;5115599;28;20184;-71
2022/06/09 10:25:13;;;;;;;19.60;13.97;;;;;;;;;;5115504;28;20177;-71
2022/06/09 10:27:46;;;;;;;19.33;14.30;;;;;;;;;;5106089;28;20238;-72
2022/06/09 10:30:19;;;;;;;14.90;13.43;;;;;;;16.70;100.00;65933.41;5110340;28;20218;-71
2022/06/09 10:32:52;;;;;;;19.57;13.40;;;;;;;16.74;100.00;65937.88;5107033;28;20747;-72
2022/06/09 10:35:32;;;;;;;16.07;13.90;;;;;;;16.88;100.00;65962.84;5112203;28;20193;-71
2022/06/09 10:38:12;;;;;;;14.20;11.53;;;;;;;16.88;100.00;65954.97;5115867;28;20511;-71
2022/06/09 10:40:47;;;;;;;13.90;10.20;;;;;;;;;;5107277;28;20577;-71
2022/06/09 10:43:26;;;;;;;11.70;10.53;;;;;;;16.96;100.00;65963.91;5114648;28;20196;-71
2022/06/09 10:46:11;;;;;;;10.63;9.83;;;;;;;16.97;100.00;65970.25;5112667;28;20291;-74
2022/06/09 10:57:23;;;;;;;13.50;5.40;;;;;;;;;;5115537;28;20616;-74
2022/06/09 10:59:56;;;;;;;11.77;10.80;;;;;;;15.48;100.00;65799.72;5114847;28;20177;-75
2022/06/09 11:02:24;;;;;;;12.43;10.80;;;;;;;;;;5115003;28;20177;-75
2022/06/09 11:04:52;;;;;;;13.07;11.53;;;;;;;15.48;100.00;65799.16;5114751;28;20194;-75
2022/06/09 11:07:44;;;;;;;13.97;12.70;;;;;;;15.43;100.00;65804.63;5114867;28;20207;-75
2022/06/09 11:10:25;;;;;;;12.33;11.03;;;;;;;;;;5114914;28;20222;-76
2022/06/09 11:13:07;;;;;;;10.60;9.57;;;;;;;;;;5115418;28;20174;-77
2022/06/09 11:15:40;;;;;;;9.60;8.63;;;;;;;15.63;100.00;65758.88;5114510;28;20200;-77
2022/06/09 11:18:39;;;;;;;8.37;7.63;;;;;;;15.66;100.00;65819.78;5115046;28;20178;-77
2022/06/09 11:21:24;;;;;;;8.70;8.10;;;;;;;15.71;100.00;65826.84;5093226;28;20220;-77
2022/06/09 11:24:12;;;;;;;9.67;8.83;;;;;;;15.77;100.00;65831.47;5114912;28;20185;-77
2022/06/09 11:26:57;;;;;;;8.40;7.30;;;;;;;;;;5114690;28;20200;-77
2022/06/09 11:29:49;;;;;;;8.37;7.90;;;;;;;15.99;100.00;65797.81;5114647;28;20181;-76
2022/06/09 11:32:21;;;;;;;8.97;8.37;;;;;;;;;;5114981;28;20587;-77
2022/06/09 11:35:11;;;;;;;7.80;7.47;;;;;;;16.04;100.00;65868.84;5114243;28;20185;-77
2022/06/09 11:37:37;;;;;;;10.17;8.10;;;;;;;;;;5114433;28;20185;-77
2022/06/09 11:40:20;;;;;;;8.80;8.33;;;;;;;;;;5114616;28;20176;-76
2022/06/09 11:42:55;;;;;;;9.50;8.77;;;;;;;16.24;100.00;65885.88;5114094;28;20185;-76
2022/06/09 11:45:43;;;;;;;8.03;7.63;;;;;;;16.30;100.00;65899.31;5114590;28;20683;-76
2022/06/09 11:48:21;;;;;;;9.23;8.33;;;;;;;16.33;100.00;65892.72;5114209;28;20158;-76
2022/06/09 11:50:50;;;;;;;8.60;7.90;;;;;;;16.31;100.00;65900.41;5114042;28;20213;-79
2022/06/09 11:53:23;;;;;;;8.70;8.20;;;;;;;16.34;100.00;65835.66;5114593;28;20180;-77
2022/06/09 11:56:00;;;;;;;10.03;9.00;;;;;;;16.26;100.00;65887.00;5114207;28;20178;-76
2022/06/09 11:58:36;;;;;;;2.03;1.93;;;;;;;;;;5114242;28;20188;-75
2022/06/09 12:01:14;;;;;;;2.07;2.07;;;;;;;15.16;100.00;65767.28;5114099;28;20250;-75
2022/06/09 12:04:15;;;;;;;3.13;2.00;;;;;;;14.78;100.00;65726.09;5114372;28;20197;-75
2022/06/09 12:06:58;;;;;;;1.80;1.80;;;;;;;14.34;100.00;65677.72;5113685;28;20209;-76
2022/06/09 12:09:41;;;;;;;1.83;1.83;;;;;;;14.32;100.00;65680.72;5114311;28;20188;-77
2022/06/09 12:12:26;;;;;;;6.43;2.07;;;;;;;;;;5110754;28;20208;-77
2022/06/09 12:15:11;;;;;;;2.10;2.10;;;;;;;14.26;100.00;65669.38;5113581;28;20556;-77
2022/06/09 12:17:39;;;;;;;2.30;2.30;;;;;;;;;;5118569;28;20173;-74
2022/06/09 12:20:28;;;;;;;2.97;2.63;;;;;;;14.19;100.00;65658.41;5118649;28;20226;-76
2022/06/09 12:23:23;;;;;;;2.63;2.60;;;;;;;14.21;100.00;65663.81;5119594;28;20195;-76
2022/06/09 12:26:09;;;;;;;3.80;3.10;;;;;;;14.19;100.00;65666.81;5112023;28;20193;-76
2022/06/09 12:28:45;;;;;;;2.27;2.27;;;;;;;;;;5112934;28;20219;-76
2022/06/09 12:31:37;;;;;;;2.10;2.10;;;;;;;13.99;100.00;65639.34;5119931;28;20223;-75
2022/06/09 12:34:09;;;;;;;2.30;2.20;;;;;;;13.83;100.00;65626.78;5099669;28;20219;-74
2022/06/09 12:36:42;;;;;;;2.60;2.43;;;;;;;13.85;100.00;65623.78;5115299;28;20192;-75
2022/06/09 12:39:19;;;;;;;2.00;2.00;;;;;;;13.86;100.00;65630.69;5118046;28;20671;-76
2022/06/09 12:41:54;;;;;;;1.97;1.90;;;;;;;13.90;100.00;65629.91;5115841;28;20216;-75
2022/06/09 12:44:29;;;;;;;2.20;2.20;;;;;;;13.93;100.00;65630.06;5119572;28;20177;-74
2022/06/09 12:47:18;;;;;;;2.27;2.17;;;;;;;13.86;100.00;65622.88;5117740;28;20229;-75
2022/06/09 12:49:46;;;;;;;2.50;2.50;;;;;;;;;;5115382;28;20239;-74
2022/06/09 12:52:23;;;;;;;3.30;3.20;;;;;;;13.95;100.00;65632.31;5119189;28;20209;-75
2022/06/09 12:55:08;;;;;;;2.33;2.33;;;;;;;14.00;100.00;65638.44;5118674;28;20270;-75
2022/06/09 12:57:47;;;;;;;2.70;2.70;;;;;;;14.02;100.00;65640.09;5117174;28;20241;-75
2022/06/09 13:00:13;;;;;;;2.17;2.17;;;;;;;;;;5116506;28;20193;-75
2022/06/09 13:02:40;;;;;;;2.30;2.30;;;;;;;14.14;100.00;65655.47;5118539;28;20659;-76